createdAt,value
2018-01-17T00:00:36.989Z,17.40
2018-01-17T00:01:37.081Z,16.60
2018-01-17T00:02:36.987Z,18.70
2018-01-17T00:03:37.095Z,20.30
2018-01-17T00:04:37.000Z,20.20
2018-01-17T00:05:37.162Z,17.10
2018-01-17T00:06:37.012Z,17.60
2018-01-17T00:07:37.123Z,18.90
2018-01-17T00:08:37.007Z,19.40
2018-01-17T00:09:37.055Z,19.10
2018-01-17T00:10:37.072Z,16.70
2018-01-17T00:11:37.048Z,19.70
2018-01-17T00:12:37.024Z,20.70
2018-01-17T00:13:38.085Z,16.10
2018-01-17T00:14:37.043Z,20.00
2018-01-17T00:15:37.037Z,17.00
2018-01-17T00:16:37.033Z,19.90
2018-01-17T00:17:37.097Z,16.90
2018-01-17T00:18:37.055Z,18.40
2018-01-17T00:19:37.100Z,19.20
2018-01-17T00:20:37.044Z,16.00
2018-01-17T00:21:37.139Z,18.50
2018-01-17T00:22:37.052Z,16.60
2018-01-17T00:23:37.126Z,17.60
2018-01-17T00:24:37.066Z,14.90
2018-01-17T00:25:37.066Z,20.30
2018-01-17T00:26:37.069Z,18.00
2018-01-17T00:27:38.203Z,15.60
2018-01-17T00:28:37.062Z,17.70
2018-01-17T00:29:38.088Z,21.10
2018-01-17T00:30:37.074Z,19.00
2018-01-17T00:31:37.187Z,23.10
2018-01-17T00:32:37.086Z,17.20
2018-01-17T00:33:37.202Z,13.90
2018-01-17T00:34:37.090Z,15.60
2018-01-17T00:35:37.093Z,17.50
2018-01-17T00:36:37.091Z,19.00
2018-01-17T00:37:37.172Z,16.20
2018-01-17T00:38:37.113Z,18.00
2018-01-17T00:39:37.139Z,16.30
2018-01-17T00:40:37.119Z,12.60
2018-01-17T00:41:37.202Z,14.80
2018-01-17T00:42:37.104Z,16.80
2018-01-17T00:43:37.156Z,18.20
2018-01-17T00:44:37.124Z,14.40
2018-01-17T00:45:37.174Z,19.80
2018-01-17T00:46:37.129Z,21.00
2018-01-17T00:47:37.196Z,14.30
2018-01-17T00:48:37.132Z,14.50
2018-01-17T00:49:37.201Z,23.40
2018-01-17T00:50:37.131Z,18.50
2018-01-17T00:51:37.144Z,15.50
2018-01-17T00:52:38.244Z,12.70
2018-01-17T00:53:37.148Z,16.90
2018-01-17T00:54:37.264Z,15.30
2018-01-17T00:55:37.161Z,18.40
2018-01-17T00:56:37.254Z,22.30
2018-01-17T00:57:37.171Z,17.30
2018-01-17T00:58:38.196Z,16.00
2018-01-17T00:59:37.163Z,16.50
2018-01-17T01:00:37.161Z,13.20
2018-01-17T01:01:37.179Z,21.20
2018-01-17T01:02:37.204Z,16.10
2018-01-17T01:03:37.193Z,13.70
2018-01-17T01:04:37.198Z,14.50
2018-01-17T01:05:37.234Z,15.30
2018-01-17T01:06:37.209Z,14.80
2018-01-17T01:07:37.195Z,15.50
2018-01-17T01:08:37.187Z,13.60
2018-01-17T01:09:37.243Z,16.00
2018-01-17T01:10:37.194Z,11.60
2018-01-17T01:11:37.252Z,17.70
2018-01-17T01:12:37.207Z,18.30
2018-01-17T01:13:37.265Z,16.90
2018-01-17T01:14:37.252Z,11.40
2018-01-17T01:15:37.278Z,14.20
2018-01-17T01:16:37.211Z,16.20
2018-01-17T01:17:37.288Z,17.00
2018-01-17T01:18:37.224Z,16.00
2018-01-17T01:19:37.320Z,13.10
2018-01-17T01:20:37.226Z,15.80
2018-01-17T01:21:37.390Z,16.30
2018-01-17T01:22:37.254Z,13.80
2018-01-17T01:23:42.252Z,13.60
2018-01-17T01:24:37.281Z,13.50
2018-01-17T01:25:37.242Z,13.00
2018-01-17T01:26:37.355Z,18.00
2018-01-17T01:27:37.255Z,12.90
2018-01-17T01:28:37.274Z,14.50
2018-01-17T01:29:37.261Z,12.10
2018-01-17T01:30:37.279Z,15.90
2018-01-17T01:31:37.253Z,15.20
2018-01-17T01:32:37.283Z,13.00
2018-01-17T01:33:37.268Z,10.20
2018-01-17T01:34:37.326Z,13.10
2018-01-17T01:35:37.325Z,12.40
2018-01-17T01:36:37.322Z,10.40
2018-01-17T01:37:37.339Z,13.60
2018-01-17T01:38:37.390Z,12.40
2018-01-17T01:39:37.284Z,8.80
2018-01-17T01:40:37.415Z,15.70
2018-01-17T01:41:37.303Z,11.40
2018-01-17T01:42:37.307Z,8.70
2018-01-17T01:43:37.294Z,9.40
2018-01-17T01:44:37.290Z,11.70
2018-01-17T01:45:37.312Z,9.70
2018-01-17T01:46:37.335Z,8.60
2018-01-17T01:47:37.327Z,11.40
2018-01-17T01:48:37.361Z,10.20
2018-01-17T01:49:37.311Z,12.00
2018-01-17T01:50:37.389Z,9.50
2018-01-17T01:51:37.332Z,12.30
2018-01-17T01:52:37.376Z,12.40
2018-01-17T01:53:37.341Z,13.10
2018-01-17T01:54:37.394Z,9.60
2018-01-17T01:55:37.323Z,9.20
2018-01-17T01:56:37.404Z,10.30
2018-01-17T01:57:37.393Z,8.40
2018-01-17T01:58:37.419Z,12.10
2018-01-17T01:59:37.340Z,11.30
2018-01-17T02:00:38.453Z,10.50
2018-01-17T02:01:37.346Z,12.70
2018-01-17T02:02:37.443Z,9.00
2018-01-17T02:03:37.352Z,13.60
2018-01-17T02:04:37.367Z,13.20
2018-01-17T02:05:37.525Z,13.70
2018-01-17T02:06:37.362Z,12.10
2018-01-17T02:07:39.426Z,13.60
2018-01-17T02:08:37.366Z,12.50
2018-01-17T02:09:37.400Z,12.30
2018-01-17T02:10:37.385Z,10.30
2018-01-17T02:11:38.479Z,8.50
2018-01-17T02:12:37.381Z,6.80
2018-01-17T02:13:39.471Z,8.90
2018-01-17T02:14:37.385Z,7.20
2018-01-17T02:15:37.488Z,8.50
2018-01-17T02:16:37.397Z,8.70
2018-01-17T02:17:37.443Z,6.30
2018-01-17T02:18:37.411Z,6.80
2018-01-17T02:19:37.521Z,7.30
2018-01-17T02:20:37.421Z,6.80
2018-01-17T02:21:37.475Z,7.30
2018-01-17T02:22:37.415Z,7.90
2018-01-17T02:23:37.467Z,6.90
2018-01-17T02:24:37.430Z,8.50
2018-01-17T02:25:38.519Z,7.90
2018-01-17T02:26:37.424Z,8.70
2018-01-17T02:27:37.512Z,7.80
2018-01-17T02:28:37.487Z,13.40
2018-01-17T02:29:37.530Z,7.70
2018-01-17T02:30:37.523Z,6.00
2018-01-17T02:31:38.495Z,6.40
2018-01-17T02:32:37.480Z,5.80
2018-01-17T02:33:37.583Z,8.70
2018-01-17T02:34:37.444Z,7.70
2018-01-17T02:35:37.493Z,7.20
2018-01-17T02:36:37.450Z,9.40
2018-01-17T02:37:37.489Z,6.40
2018-01-17T02:38:37.456Z,6.30
2018-01-17T02:39:37.498Z,9.50
2018-01-17T02:40:37.469Z,7.00
2018-01-17T02:41:37.507Z,6.10
2018-01-17T02:42:37.472Z,8.10
2018-01-17T02:43:37.524Z,6.80
2018-01-17T02:44:37.525Z,9.80
2018-01-17T02:45:37.541Z,8.70
2018-01-17T02:46:37.477Z,5.10
2018-01-17T02:47:38.575Z,7.40
2018-01-17T02:48:37.505Z,5.60
2018-01-17T02:49:37.558Z,8.70
2018-01-17T02:50:37.503Z,5.00
2018-01-17T02:51:37.581Z,7.20
2018-01-17T02:52:37.497Z,5.50
2018-01-17T02:53:37.591Z,5.50
2018-01-17T02:54:37.512Z,8.20
2018-01-17T02:55:37.611Z,5.30
2018-01-17T02:56:37.511Z,5.90
2018-01-17T02:57:37.623Z,4.60
2018-01-17T02:58:37.532Z,5.40
2018-01-17T02:59:39.584Z,6.60
2018-01-17T03:00:37.515Z,6.10
2018-01-17T03:01:37.552Z,6.00
2018-01-17T03:02:37.534Z,6.00
2018-01-17T03:03:37.561Z,7.70
2018-01-17T03:04:37.565Z,9.70
2018-01-17T03:05:37.575Z,5.90
2018-01-17T03:06:37.539Z,7.40
2018-01-17T03:07:37.580Z,6.60
2018-01-17T03:08:37.540Z,5.50
2018-01-17T03:09:37.601Z,6.70
2018-01-17T03:10:37.578Z,8.10
2018-01-17T03:11:37.648Z,6.40
2018-01-17T03:12:37.550Z,8.40
2018-01-17T03:13:39.685Z,5.40
2018-01-17T03:14:37.556Z,7.00
2018-01-17T03:15:38.657Z,4.10
2018-01-17T03:16:37.638Z,7.00
2018-01-17T03:17:37.718Z,4.70
2018-01-17T03:18:37.598Z,4.10
2018-01-17T03:19:37.575Z,5.60
2018-01-17T03:20:37.678Z,5.70
2018-01-17T03:21:37.707Z,6.20
2018-01-17T03:22:37.742Z,6.80
2018-01-17T03:23:37.589Z,6.10
2018-01-17T03:24:37.700Z,3.60
2018-01-17T03:25:37.612Z,4.40
2018-01-17T03:26:37.598Z,5.60
2018-01-17T03:27:37.614Z,4.70
2018-01-17T03:28:37.607Z,4.80
2018-01-17T03:29:37.629Z,6.00
2018-01-17T03:30:37.602Z,6.70
2018-01-17T03:31:38.678Z,5.30
2018-01-17T03:32:37.622Z,5.40
2018-01-17T03:33:37.714Z,5.00
2018-01-17T03:34:37.658Z,8.10
2018-01-17T03:35:37.687Z,5.50
2018-01-17T03:36:37.625Z,6.10
2018-01-17T03:37:37.683Z,5.30
2018-01-17T03:38:37.661Z,10.10
2018-01-17T03:39:38.721Z,8.20
2018-01-17T03:40:37.634Z,7.60
2018-01-17T03:41:37.753Z,4.10
2018-01-17T03:42:37.638Z,9.20
2018-01-17T03:43:37.725Z,8.10
2018-01-17T03:44:37.691Z,6.40
2018-01-17T03:45:37.754Z,8.90
2018-01-17T03:46:37.660Z,8.80
2018-01-17T03:47:37.750Z,8.40
2018-01-17T03:48:37.662Z,8.70
2018-01-17T03:49:37.770Z,8.30
2018-01-17T03:50:37.666Z,9.80
2018-01-17T03:51:37.816Z,7.70
2018-01-17T03:52:37.714Z,6.20
2018-01-17T03:53:37.687Z,7.60
2018-01-17T03:54:37.674Z,8.50
2018-01-17T03:55:37.803Z,9.40
2018-01-17T03:56:37.727Z,7.70
2018-01-17T03:57:37.765Z,8.40
2018-01-17T03:58:37.688Z,6.60
2018-01-17T03:59:37.770Z,9.00
2018-01-17T04:00:37.697Z,7.80
2018-01-17T04:01:38.770Z,10.10
2018-01-17T04:02:37.696Z,8.10
2018-01-17T04:03:37.812Z,9.50
2018-01-17T04:04:37.702Z,7.70
2018-01-17T04:05:37.769Z,8.10
2018-01-17T04:06:37.705Z,7.50
2018-01-17T04:07:37.792Z,10.40
2018-01-17T04:08:37.729Z,5.10
2018-01-17T04:09:38.832Z,8.40
2018-01-17T04:10:37.721Z,8.80
2018-01-17T04:11:37.721Z,6.20
2018-01-17T04:12:37.791Z,8.80
2018-01-17T04:13:37.870Z,9.10
2018-01-17T04:14:37.758Z,9.20
2018-01-17T04:15:38.764Z,9.70
2018-01-17T04:16:37.741Z,9.40
2018-01-17T04:17:37.856Z,9.50
2018-01-17T04:18:37.827Z,10.70
2018-01-17T04:19:37.763Z,6.70
2018-01-17T04:20:37.754Z,8.10
2018-01-17T04:21:37.761Z,8.30
2018-01-17T04:22:37.752Z,8.10
2018-01-17T04:23:37.793Z,8.30
2018-01-17T04:24:37.781Z,8.50
2018-01-17T04:25:37.886Z,9.30
2018-01-17T04:26:37.815Z,9.40
2018-01-17T04:27:38.845Z,8.90
2018-01-17T04:28:37.763Z,8.30
2018-01-17T04:29:37.769Z,7.10
2018-01-17T04:30:38.865Z,7.90
2018-01-17T04:31:37.780Z,9.20
2018-01-17T04:32:37.940Z,6.30
2018-01-17T04:33:37.784Z,8.30
2018-01-17T04:34:38.985Z,6.20
2018-01-17T04:35:37.798Z,8.80
2018-01-17T04:36:37.883Z,10.50
2018-01-17T04:37:37.792Z,12.70
2018-01-17T04:38:37.912Z,12.10
2018-01-17T04:39:37.807Z,8.30
2018-01-17T04:40:37.914Z,10.10
2018-01-17T04:41:37.828Z,8.40
2018-01-17T04:42:37.934Z,6.50
2018-01-17T04:43:37.832Z,9.10
2018-01-17T04:44:37.837Z,10.10
2018-01-17T04:45:37.814Z,14.70
2018-01-17T04:46:37.853Z,11.90
2018-01-17T04:47:37.814Z,9.60
2018-01-17T04:48:37.865Z,11.20
2018-01-17T04:49:37.849Z,10.40
2018-01-17T04:50:37.908Z,12.20
2018-01-17T04:51:37.838Z,12.20
2018-01-17T04:52:37.884Z,14.70
2018-01-17T04:53:37.840Z,12.70
2018-01-17T04:54:37.932Z,11.30
2018-01-17T04:55:37.854Z,12.30
2018-01-17T04:56:37.913Z,12.30
2018-01-17T04:57:37.852Z,9.50
2018-01-17T04:58:37.921Z,11.90
2018-01-17T04:59:37.946Z,12.40
2018-01-17T05:00:37.963Z,14.50
2018-01-17T05:01:37.865Z,16.60
2018-01-17T05:02:37.951Z,11.30
2018-01-17T05:03:37.870Z,12.20
2018-01-17T05:04:37.974Z,15.30
2018-01-17T05:05:37.876Z,12.40
2018-01-17T05:06:37.986Z,12.50
2018-01-17T05:07:37.884Z,15.90
2018-01-17T05:08:37.892Z,12.40
2018-01-17T05:09:37.893Z,13.90
2018-01-17T05:10:37.912Z,14.30
2018-01-17T05:11:37.893Z,14.20
2018-01-17T05:12:37.921Z,16.30
2018-01-17T05:13:37.900Z,18.60
2018-01-17T05:14:37.961Z,15.70
2018-01-17T05:15:37.905Z,15.10
2018-01-17T05:16:37.911Z,14.30
2018-01-17T05:17:37.906Z,14.70
2018-01-17T05:18:38.008Z,16.50
2018-01-17T05:19:37.938Z,13.40
2018-01-17T05:20:37.977Z,12.30
2018-01-17T05:21:37.922Z,15.40
2018-01-17T05:22:37.990Z,15.00
2018-01-17T05:23:37.925Z,21.20
2018-01-17T05:24:38.093Z,13.50
2018-01-17T05:25:37.930Z,17.10
2018-01-17T05:26:38.029Z,17.60
2018-01-17T05:27:37.932Z,10.70
2018-01-17T05:28:38.038Z,19.10
2018-01-17T05:29:37.972Z,16.20
2018-01-17T05:30:38.043Z,17.30
2018-01-17T05:31:37.958Z,18.70
2018-01-17T05:32:38.057Z,16.60
2018-01-17T05:33:37.945Z,14.80
2018-01-17T05:34:39.005Z,14.20
2018-01-17T05:35:37.978Z,13.30
2018-01-17T05:36:37.983Z,12.30
2018-01-17T05:37:37.970Z,17.90
2018-01-17T05:38:38.014Z,12.90
2018-01-17T05:39:37.972Z,13.60
2018-01-17T05:40:39.074Z,12.30
2018-01-17T05:41:37.974Z,13.80
2018-01-17T05:42:38.032Z,12.60
2018-01-17T05:43:37.998Z,11.40
2018-01-17T05:44:37.977Z,15.50
2018-01-17T05:45:37.985Z,11.90
2018-01-17T05:46:38.053Z,15.90
2018-01-17T05:47:38.045Z,12.20
2018-01-17T05:48:38.064Z,10.40
2018-01-17T05:49:38.017Z,14.00
2018-01-17T05:50:38.072Z,11.60
2018-01-17T05:51:38.004Z,13.00
2018-01-17T05:52:38.088Z,12.60
2018-01-17T05:53:37.998Z,11.40
2018-01-17T05:54:38.119Z,8.40
2018-01-17T05:55:38.013Z,11.40
2018-01-17T05:56:38.118Z,10.30
2018-01-17T05:57:38.017Z,11.40
2018-01-17T05:58:39.079Z,10.70
2018-01-17T05:59:38.018Z,9.90
2018-01-17T06:00:42.033Z,9.90
2018-01-17T06:01:38.031Z,9.60
2018-01-17T06:02:38.135Z,11.10
2018-01-17T06:03:38.029Z,9.00
2018-01-17T06:04:42.914Z,13.30
2018-01-17T06:05:38.045Z,11.40
2018-01-17T06:06:38.050Z,9.20
2018-01-17T06:07:38.086Z,11.00
2018-01-17T06:08:38.069Z,11.50
2018-01-17T06:09:38.053Z,10.00
2018-01-17T06:10:39.104Z,8.20
2018-01-17T06:11:38.046Z,7.40
2018-01-17T06:12:38.093Z,12.90
2018-01-17T06:13:38.066Z,9.40
2018-01-17T06:14:38.107Z,11.70
2018-01-17T06:15:38.074Z,5.80
2018-01-17T06:16:38.134Z,9.80
2018-01-17T06:17:38.100Z,9.10
2018-01-17T06:18:38.137Z,6.20
2018-01-17T06:19:38.120Z,12.40
2018-01-17T06:20:38.153Z,9.00
2018-01-17T06:21:38.082Z,9.30
2018-01-17T06:22:38.161Z,7.70
2018-01-17T06:23:38.082Z,11.10
2018-01-17T06:24:39.195Z,11.50
2018-01-17T06:25:38.084Z,9.00
2018-01-17T06:26:38.186Z,11.80
2018-01-17T06:27:38.086Z,7.60
2018-01-17T06:28:38.095Z,6.70
2018-01-17T06:29:38.102Z,8.70
2018-01-17T06:30:38.212Z,13.60
2018-01-17T06:31:38.099Z,9.40
2018-01-17T06:32:38.122Z,8.60
2018-01-17T06:33:38.130Z,8.40
2018-01-17T06:34:38.140Z,9.60
2018-01-17T06:35:38.121Z,16.20
2018-01-17T06:36:38.153Z,11.30
2018-01-17T06:37:38.130Z,8.40
2018-01-17T06:38:38.161Z,10.30
2018-01-17T06:39:38.125Z,9.60
2018-01-17T06:40:38.176Z,11.90
2018-01-17T06:41:38.156Z,10.00
2018-01-17T06:42:38.198Z,10.60
2018-01-17T06:43:38.227Z,9.40
2018-01-17T06:44:38.136Z,9.50
2018-01-17T06:45:39.234Z,10.60
2018-01-17T06:46:38.157Z,11.10
2018-01-17T06:47:38.145Z,12.60
2018-01-17T06:48:38.259Z,11.30
2018-01-17T06:49:38.154Z,7.50
2018-01-17T06:50:38.296Z,13.80
2018-01-17T06:51:38.160Z,10.00
2018-01-17T06:52:38.166Z,11.60
2018-01-17T06:53:38.268Z,9.60
2018-01-17T06:54:38.205Z,12.90
2018-01-17T06:55:38.166Z,9.20
2018-01-17T06:56:38.170Z,8.60
2018-01-17T06:57:39.227Z,11.90
2018-01-17T06:58:38.189Z,7.80
2018-01-17T06:59:38.206Z,7.30
2018-01-17T07:00:38.201Z,7.40
2018-01-17T07:01:38.230Z,11.40
2018-01-17T07:02:38.225Z,8.10
2018-01-17T07:03:38.190Z,11.00
2018-01-17T07:04:38.250Z,15.10
2018-01-17T07:05:38.193Z,13.70
2018-01-17T07:06:38.195Z,10.20
2018-01-17T07:07:38.210Z,9.50
2018-01-17T07:08:38.197Z,12.70
2018-01-17T07:09:38.246Z,16.50
2018-01-17T07:10:38.205Z,12.40
2018-01-17T07:11:38.211Z,12.10
2018-01-17T07:12:38.208Z,14.00
2018-01-17T07:13:38.225Z,12.50
2018-01-17T07:14:38.312Z,11.40
2018-01-17T07:15:38.220Z,16.00
2018-01-17T07:16:38.220Z,15.10
2018-01-17T07:17:38.219Z,12.10
2018-01-17T07:18:38.227Z,10.30
2018-01-17T07:19:38.221Z,14.40
2018-01-17T07:20:38.232Z,13.80
2018-01-17T07:21:38.274Z,13.00
2018-01-17T07:22:38.362Z,12.40
2018-01-17T07:23:38.251Z,14.00
2018-01-17T07:24:38.296Z,13.40
2018-01-17T07:25:38.260Z,16.00
2018-01-17T07:26:38.288Z,10.20
2018-01-17T07:27:38.266Z,12.10
2018-01-17T07:28:38.387Z,15.30
2018-01-17T07:29:38.262Z,17.00
2018-01-17T07:30:39.338Z,11.60
2018-01-17T07:31:38.331Z,13.30
2018-01-17T07:32:38.329Z,14.10
2018-01-17T07:33:38.266Z,13.00
2018-01-17T07:34:38.378Z,14.10
2018-01-17T07:35:38.270Z,15.50
2018-01-17T07:36:38.418Z,15.20
2018-01-17T07:37:38.288Z,14.20
2018-01-17T07:38:38.274Z,15.60
2018-01-17T07:39:38.289Z,12.90
2018-01-17T07:40:38.322Z,12.20
2018-01-17T07:41:38.386Z,13.80
2018-01-17T07:42:38.297Z,12.60
2018-01-17T07:43:38.284Z,13.20
2018-01-17T07:44:38.378Z,15.10
2018-01-17T07:45:38.287Z,10.60
2018-01-17T07:46:38.319Z,14.20
2018-01-17T07:47:38.370Z,15.00
2018-01-17T07:48:38.343Z,8.10
2018-01-17T07:49:38.307Z,10.50
2018-01-17T07:50:38.320Z,11.60
2018-01-17T07:51:38.312Z,13.80
2018-01-17T07:52:38.382Z,14.80
2018-01-17T07:53:38.332Z,8.70
2018-01-17T07:54:38.345Z,15.40
2018-01-17T07:55:38.345Z,7.70
2018-01-17T07:56:38.378Z,9.10
2018-01-17T07:57:38.328Z,9.40
2018-01-17T07:58:38.325Z,10.90
2018-01-17T07:59:38.335Z,9.50
2018-01-17T08:00:38.368Z,10.90
2018-01-17T08:01:38.362Z,8.90
2018-01-17T08:02:38.350Z,7.30
2018-01-17T08:03:39.381Z,10.50
2018-01-17T08:04:38.346Z,9.60
2018-01-17T08:05:40.484Z,5.20
2018-01-17T08:06:38.362Z,11.20
2018-01-17T08:07:43.392Z,8.20
2018-01-17T08:08:38.363Z,10.00
2018-01-17T08:09:38.417Z,7.70
2018-01-17T08:10:38.371Z,9.90
2018-01-17T08:11:38.490Z,11.10
2018-01-17T08:12:38.387Z,9.60
2018-01-17T08:13:40.511Z,6.20
2018-01-17T08:14:38.397Z,7.60
2018-01-17T08:15:38.473Z,6.10
2018-01-17T08:16:38.377Z,11.10
2018-01-17T08:17:39.450Z,8.10
2018-01-17T08:18:38.393Z,8.90
2018-01-17T08:19:38.449Z,5.40
2018-01-17T08:20:38.422Z,7.70
2018-01-17T08:21:39.484Z,8.90
2018-01-17T08:22:38.392Z,11.00
2018-01-17T08:23:38.476Z,6.80
2018-01-17T08:24:38.403Z,7.90
2018-01-17T08:25:38.406Z,6.80
2018-01-17T08:26:40.452Z,9.50
2018-01-17T08:27:38.402Z,9.20
2018-01-17T08:28:38.442Z,6.40
2018-01-17T08:29:38.449Z,8.20
2018-01-17T08:30:39.633Z,9.90
2018-01-17T08:31:38.419Z,10.60
2018-01-17T08:32:38.529Z,7.60
2018-01-17T08:33:38.422Z,9.60
2018-01-17T08:34:38.416Z,10.10
2018-01-17T08:35:38.458Z,9.20
2018-01-17T08:36:38.419Z,6.60
2018-01-17T08:37:38.457Z,8.00
2018-01-17T08:38:38.431Z,6.60
2018-01-17T08:39:38.435Z,7.00
2018-01-17T08:40:38.439Z,6.40
2018-01-17T08:41:38.478Z,6.00
2018-01-17T08:42:38.433Z,7.30
2018-01-17T08:43:39.510Z,7.50
2018-01-17T08:44:38.450Z,8.20
2018-01-17T08:45:38.498Z,5.80
2018-01-17T08:46:38.477Z,6.10
2018-01-17T08:47:38.515Z,6.30
2018-01-17T08:48:38.443Z,8.70
2018-01-17T08:49:38.531Z,6.90
2018-01-17T08:50:38.456Z,6.30
2018-01-17T08:51:38.546Z,7.40
2018-01-17T08:52:38.468Z,8.60
2018-01-17T08:53:38.470Z,9.80
2018-01-17T08:54:38.461Z,7.80
2018-01-17T08:55:38.464Z,5.80
2018-01-17T08:56:38.590Z,9.50
2018-01-17T08:57:38.474Z,6.90
2018-01-17T08:58:38.482Z,7.20
2018-01-17T08:59:38.478Z,5.90
2018-01-17T09:00:38.493Z,7.30
2018-01-17T09:01:38.491Z,6.60
2018-01-17T09:02:38.615Z,7.70
2018-01-17T09:03:38.502Z,5.20
2018-01-17T09:04:38.510Z,8.10
2018-01-17T09:05:38.546Z,7.10
2018-01-17T09:06:38.508Z,6.60
2018-01-17T09:07:38.560Z,6.10
2018-01-17T09:08:38.508Z,7.80
2018-01-17T09:09:38.559Z,8.10
2018-01-17T09:10:38.513Z,7.70
2018-01-17T09:11:38.611Z,7.00
2018-01-17T09:12:38.542Z,10.20
2018-01-17T09:13:39.623Z,11.90
2018-01-17T09:14:38.534Z,7.30
2018-01-17T09:15:38.538Z,7.80
2018-01-17T09:16:38.569Z,5.50
2018-01-17T09:17:38.548Z,8.00
2018-01-17T09:18:38.558Z,6.80
2018-01-17T09:19:38.593Z,5.20
2018-01-17T09:20:38.570Z,7.90
2018-01-17T09:21:39.678Z,9.10
2018-01-17T09:22:38.559Z,9.20
2018-01-17T09:23:38.585Z,6.30
2018-01-17T09:24:38.560Z,7.50
2018-01-17T09:25:38.560Z,8.80
2018-01-17T09:26:38.574Z,6.60
2018-01-17T09:27:38.709Z,7.00
2018-01-17T09:28:38.568Z,7.50
2018-01-17T09:29:38.555Z,6.90
2018-01-17T09:30:38.603Z,11.20
2018-01-17T09:31:38.567Z,9.10
2018-01-17T09:32:38.563Z,9.10
2018-01-17T09:33:38.585Z,7.90
2018-01-17T09:34:38.579Z,7.20
2018-01-17T09:35:38.568Z,10.30
2018-01-17T09:36:38.648Z,7.80
2018-01-17T09:37:38.580Z,8.60
2018-01-17T09:38:38.585Z,6.10
2018-01-17T09:39:38.584Z,6.60
2018-01-17T09:40:38.595Z,8.90
2018-01-17T09:41:38.677Z,12.90
2018-01-17T09:42:38.589Z,9.50
2018-01-17T09:43:38.715Z,6.90
2018-01-17T09:44:38.591Z,9.10
2018-01-17T09:45:38.606Z,8.30
2018-01-17T09:46:38.601Z,7.70
2018-01-17T09:47:39.772Z,7.50
2018-01-17T09:48:38.609Z,6.10
2018-01-17T09:49:38.784Z,10.40
2018-01-17T09:50:38.619Z,8.80
2018-01-17T09:51:39.800Z,12.60
2018-01-17T09:52:38.620Z,7.80
2018-01-17T09:53:38.622Z,8.90
2018-01-17T09:54:38.632Z,9.70
2018-01-17T09:55:38.695Z,8.10
2018-01-17T09:56:38.647Z,7.90
2018-01-17T09:57:38.682Z,12.80
2018-01-17T09:58:38.653Z,8.50
2018-01-17T09:59:38.697Z,7.70
2018-01-17T10:00:38.644Z,11.10
2018-01-17T10:01:38.712Z,11.20
2018-01-17T10:02:38.647Z,12.10
2018-01-17T10:03:38.724Z,9.70
2018-01-17T10:04:38.661Z,9.50
2018-01-17T10:05:38.753Z,11.70
2018-01-17T10:06:38.657Z,10.70
2018-01-17T10:07:38.754Z,8.50
2018-01-17T10:08:38.676Z,10.00
2018-01-17T10:09:38.773Z,9.80
2018-01-17T10:10:38.684Z,15.50
2018-01-17T10:11:38.790Z,10.00
2018-01-17T10:12:38.676Z,6.80
2018-01-17T10:13:38.684Z,6.40
2018-01-17T10:14:38.686Z,5.60
2018-01-17T10:15:38.815Z,9.40
2018-01-17T10:16:38.702Z,8.20
2018-01-17T10:17:38.725Z,7.60
2018-01-17T10:18:38.686Z,8.90
2018-01-17T10:19:38.739Z,10.10
2018-01-17T10:20:38.697Z,10.30
2018-01-17T10:21:38.752Z,10.70
2018-01-17T10:22:38.703Z,9.60
2018-01-17T10:23:38.765Z,10.80
2018-01-17T10:24:38.709Z,13.10
2018-01-17T10:25:38.786Z,8.50
2018-01-17T10:26:38.708Z,10.40
2018-01-17T10:27:38.814Z,10.70
2018-01-17T10:28:38.768Z,13.80
2018-01-17T10:29:38.827Z,12.70
2018-01-17T10:30:38.740Z,12.90
2018-01-17T10:31:38.837Z,14.70
2018-01-17T10:32:38.766Z,15.50
2018-01-17T10:33:38.783Z,12.10
2018-01-17T10:34:40.796Z,12.00
2018-01-17T10:35:38.771Z,9.30
2018-01-17T10:36:40.822Z,9.80
2018-01-17T10:37:38.777Z,12.30
2018-01-17T10:38:38.774Z,11.90
2018-01-17T10:39:38.799Z,10.70
2018-01-17T10:40:44.316Z,11.70
2018-01-17T10:41:38.804Z,7.60
2018-01-17T10:42:38.805Z,12.10
2018-01-17T10:43:38.768Z,12.00
2018-01-17T10:44:38.769Z,13.40
2018-01-17T10:45:38.823Z,10.50
2018-01-17T10:46:38.769Z,12.00
2018-01-17T10:47:38.867Z,9.60
2018-01-17T10:48:38.773Z,8.90
2018-01-17T10:49:38.854Z,10.90
2018-01-17T10:50:38.775Z,11.40
2018-01-17T10:51:38.863Z,12.60
2018-01-17T10:52:38.797Z,12.00
2018-01-17T10:53:40.934Z,8.90
2018-01-17T10:54:38.798Z,9.50
2018-01-17T10:55:38.891Z,12.40
2018-01-17T10:56:38.790Z,11.30
2018-01-17T10:57:38.909Z,11.50
2018-01-17T10:58:38.812Z,9.40
2018-01-17T10:59:38.910Z,11.20
2018-01-17T11:00:38.814Z,11.40
2018-01-17T11:01:38.924Z,11.50
2018-01-17T11:02:38.818Z,11.30
2018-01-17T11:03:38.845Z,6.90
2018-01-17T11:04:38.821Z,9.20
2018-01-17T11:05:38.839Z,9.00
2018-01-17T11:06:38.823Z,10.00
2018-01-17T11:07:38.825Z,9.40
2018-01-17T11:08:38.874Z,9.70
2018-01-17T11:09:38.831Z,13.10
2018-01-17T11:10:38.843Z,10.40
2018-01-17T11:11:38.849Z,12.40
2018-01-17T11:12:38.885Z,12.60
2018-01-17T11:13:38.861Z,13.60
2018-01-17T11:14:38.921Z,8.90
2018-01-17T11:15:38.847Z,12.00
2018-01-17T11:16:38.927Z,14.00
2018-01-17T11:17:38.851Z,10.60
2018-01-17T11:18:38.934Z,12.90
2018-01-17T11:19:38.860Z,13.70
2018-01-17T11:20:38.944Z,15.20
2018-01-17T11:21:38.858Z,12.50
2018-01-17T11:22:39.976Z,10.90
2018-01-17T11:23:38.870Z,11.00
2018-01-17T11:24:39.002Z,10.30
2018-01-17T11:25:38.882Z,8.80
2018-01-17T11:26:39.917Z,10.90
2018-01-17T11:27:38.900Z,9.60
2018-01-17T11:28:38.906Z,7.60
2018-01-17T11:29:38.887Z,9.30
2018-01-17T11:30:39.941Z,8.10
2018-01-17T11:31:38.903Z,8.30
2018-01-17T11:32:38.933Z,11.60
2018-01-17T11:33:38.901Z,8.50
2018-01-17T11:34:38.933Z,6.40
2018-01-17T11:35:38.901Z,6.40
2018-01-17T11:36:38.959Z,6.60
2018-01-17T11:37:38.907Z,10.80
2018-01-17T11:38:38.908Z,10.90
2018-01-17T11:39:38.916Z,7.10
2018-01-17T11:40:38.955Z,6.20
2018-01-17T11:41:38.915Z,10.30
2018-01-17T11:42:38.990Z,9.10
2018-01-17T11:43:38.929Z,9.20
2018-01-17T11:44:39.006Z,9.40
2018-01-17T11:45:38.948Z,8.40
2018-01-17T11:46:38.934Z,9.90
2018-01-17T11:47:38.927Z,10.00
2018-01-17T11:48:39.036Z,9.80
2018-01-17T11:49:38.963Z,8.70
2018-01-17T11:50:39.965Z,9.40
2018-01-17T11:51:38.941Z,12.30
2018-01-17T11:52:39.060Z,9.80
2018-01-17T11:53:38.952Z,7.90
2018-01-17T11:54:39.988Z,12.20
2018-01-17T11:55:38.952Z,6.90
2018-01-17T11:56:41.046Z,10.00
2018-01-17T11:57:38.958Z,9.10
2018-01-17T11:58:39.006Z,8.00
2018-01-17T11:59:38.968Z,6.40
2018-01-17T12:00:39.008Z,9.10
2018-01-17T12:01:38.977Z,9.80
2018-01-17T12:02:39.028Z,10.30
2018-01-17T12:03:38.992Z,9.80
2018-01-17T12:04:39.037Z,9.90
2018-01-17T12:05:39.027Z,8.30
2018-01-17T12:06:39.064Z,9.30
2018-01-17T12:07:38.988Z,7.80
2018-01-17T12:08:40.112Z,8.90
2018-01-17T12:09:38.997Z,8.20
2018-01-17T12:10:39.081Z,7.60
2018-01-17T12:11:38.995Z,9.40
2018-01-17T12:12:41.066Z,11.20
2018-01-17T12:13:39.003Z,9.60
2018-01-17T12:14:41.076Z,7.80
2018-01-17T12:15:39.006Z,7.60
2018-01-17T12:16:45.900Z,6.90
2018-01-17T12:17:39.017Z,10.60
2018-01-17T12:18:43.863Z,7.60
2018-01-17T12:19:39.037Z,11.60
2018-01-17T12:20:39.162Z,8.30
2018-01-17T12:21:39.044Z,10.00
2018-01-17T12:22:39.023Z,8.40
2018-01-17T12:23:39.025Z,6.50
2018-01-17T12:24:39.074Z,9.20
2018-01-17T12:25:39.064Z,7.90
2018-01-17T12:26:40.132Z,6.70
2018-01-17T12:27:39.065Z,7.60
2018-01-17T12:28:39.052Z,7.60
2018-01-17T12:29:39.110Z,6.20
2018-01-17T12:30:39.045Z,8.00
2018-01-17T12:31:39.049Z,8.20
2018-01-17T12:32:39.134Z,10.00
2018-01-17T12:33:39.064Z,10.80
2018-01-17T12:34:39.063Z,3.90
2018-01-17T12:35:39.058Z,10.10
2018-01-17T12:36:39.166Z,8.90
2018-01-17T12:37:39.061Z,6.90
2018-01-17T12:38:39.171Z,7.40
2018-01-17T12:39:39.075Z,10.40
2018-01-17T12:40:39.184Z,7.50
2018-01-17T12:41:39.074Z,6.80
2018-01-17T12:42:39.100Z,7.70
2018-01-17T12:43:39.075Z,7.90
2018-01-17T12:44:40.127Z,7.00
2018-01-17T12:45:39.085Z,7.30
2018-01-17T12:46:39.101Z,6.70
2018-01-17T12:47:40.148Z,8.30
2018-01-17T12:48:39.114Z,10.80
2018-01-17T12:49:39.143Z,11.40
2018-01-17T12:50:39.135Z,9.20
2018-01-17T12:51:39.166Z,11.00
2018-01-17T12:52:39.116Z,10.20
2018-01-17T12:53:39.201Z,11.20
2018-01-17T12:54:39.119Z,7.90
2018-01-17T12:55:39.176Z,7.60
2018-01-17T12:56:39.119Z,8.00
2018-01-17T12:57:39.199Z,7.80
2018-01-17T12:58:39.122Z,8.90
2018-01-17T12:59:39.211Z,11.10
2018-01-17T13:00:39.124Z,11.40
2018-01-17T13:01:39.218Z,13.20
2018-01-17T13:02:39.138Z,12.30
2018-01-17T13:03:39.246Z,9.80
2018-01-17T13:04:39.146Z,10.40
2018-01-17T13:05:39.247Z,10.80